| time (UTC) | temp C | wind direction | speed KPH | gust KPH | rain 1hr cm | rain 24hr cm | rain mn cm | humidity % | barometer mb |
| 20260831082744 | 10 | 220 | 3.2 | 4.8 | 0.00 | 0.00 | 0.00 | 68 | 1032.3 |
| 20260831082239 | 10 | 212 | 3.2 | 4.8 | 0.00 | 0.00 | 0.00 | 67 | 1032.3 |
| 20260831081735 | 10 | 213 | 4.8 | 4.8 | 0.00 | 0.00 | 0.00 | 68 | 1032.4 |
| 20260831081230 | 10 | 219 | 3.2 | 4.8 | 0.00 | 0.00 | 0.00 | 65 | 1032.5 |
| 20260831080725 | 10 | 211 | 4.8 | 4.8 | 0.00 | 0.00 | 0.00 | 65 | 1032.3 |
| 20260831080220 | 10 | 227 | 1.6 | 4.8 | 0.00 | 0.00 | 0.00 | 68 | 1032.4 |
| 20260831075716 | 10 | 224 | 3.2 | 3.2 | 0.00 | 0.00 | 0.00 | 67 | 1032.4 |
| 20260831075211 | 11 | 217 | 3.2 | 4.8 | 0.00 | 0.00 | 0.00 | 66 | 1032.4 |
| 20260831074710 | 11 | 212 | 3.2 | 4.8 | 0.00 | 0.00 | 0.00 | 67 | 1032.7 |
| 20260831074204 | 11 | 225 | 3.2 | 3.2 | 0.00 | 0.00 | 0.00 | 65 | 1032.3 |
| 20260831073659 | 11 | 215 | 3.2 | 3.2 | 0.00 | 0.00 | 0.00 | 66 | 1032.7 |
| 20260831073159 | 11 | 240 | 1.6 | 3.2 | 0.00 | 0.00 | 0.00 | 65 | 1032.8 |
| 20260831072654 | 11 | 219 | 3.2 | 4.8 | 0.00 | 0.00 | 0.00 | 64 | 1032.9 |
| 20260831072151 | 11 | 240 | 1.6 | 3.2 | 0.00 | 0.00 | 0.00 | 63 | 1032.7 |
| 20260831071650 | 11 | 238 | 3.2 | 4.8 | 0.00 | 0.00 | 0.00 | 69 | 1032.8 |
| 20260831071145 | 11 | 249 | 0.0 | 3.2 | 0.00 | 0.00 | 0.00 | 66 | 1032.7 |
| 20260831070644 | 11 | 247 | 0.0 | 3.2 | 0.00 | 0.00 | 0.00 | 69 | 1032.9 |
| 20260831070133 | 12 | 198 | 3.2 | 4.8 | 0.00 | 0.00 | 0.00 | 61 | 1032.8 |
| 20260831065631 | 12 | 236 | 3.2 | 4.8 | 0.00 | 0.00 | 0.00 | 61 | 1032.7 |
| 20260831065125 | 11 | 229 | 3.2 | 4.8 | 0.00 | 0.00 | 0.00 | 66 | 1032.8 |
| 20260831064620 | 11 | 220 | 3.2 | 4.8 | 0.00 | 0.00 | 0.00 | 67 | 1033.1 |
| 20260831064116 | 11 | 218 | 3.2 | 4.8 | 0.00 | 0.00 | 0.00 | 65 | 1033.1 |
| 20260831063612 | 12 | 210 | 3.2 | 4.8 | 0.00 | 0.00 | 0.00 | 64 | 1032.9 |
| 20260831063106 | 11 | 213 | 3.2 | 4.8 | 0.00 | 0.00 | 0.00 | 63 | 1033.1 |
| 20260831062601 | 11 | 210 | 3.2 | 4.8 | 0.00 | 0.00 | 0.00 | 66 | 1033.1 |
| 20260831062100 | 12 | 215 | 3.2 | 4.8 | 0.00 | 0.00 | 0.00 | 61 | 1033.3 |
| 20260831061558 | 12 | 194 | 4.8 | 4.8 | 0.00 | 0.00 | 0.00 | 59 | 1033.5 |
| 20260831061055 | 12 | 246 | 3.2 | 4.8 | 0.00 | 0.00 | 0.00 | 59 | 1033.2 |
| 20260831060550 | 12 | 228 | 3.2 | 6.4 | 0.00 | 0.00 | 0.00 | 62 | 1033.6 |
| 20260831060045 | 12 | 235 | 3.2 | 6.4 | 0.00 | 0.00 | 0.00 | 61 | 1033.3 |
| 20260831055539 | 12 | 203 | 3.2 | 4.8 | 0.00 | 0.25 | 0.25 | 62 | 1033.6 |
| 20260831055035 | 12 | 220 | 3.2 | 9.7 | 0.00 | 0.25 | 0.25 | 62 | 1033.7 |
| 20260831054534 | 12 | 242 | 3.2 | 4.8 | 0.00 | 0.25 | 0.25 | 60 | 1033.9 |
| 20260831054033 | 12 | 221 | 3.2 | 4.8 | 0.00 | 0.25 | 0.25 | 60 | 1033.9 |
| 20260831053532 | 12 | 219 | 3.2 | 4.8 | 0.00 | 0.25 | 0.25 | 59 | 1033.6 |
| 20260831053027 | 12 | 219 | 8.0 | 9.7 | 0.00 | 0.25 | 0.25 | 58 | 1033.7 |
| 20260831052526 | 12 | 236 | 4.8 | 4.8 | 0.00 | 0.25 | 0.25 | 58 | 1033.7 |
| 20260831052021 | 13 | 238 | 4.8 | 6.4 | 0.00 | 0.25 | 0.25 | 58 | 1033.7 |
| 20260831051518 | 13 | 225 | 3.2 | 14.5 | 0.00 | 0.25 | 0.25 | 59 | 1033.6 |
| 20260831051012 | 13 | 259 | 3.2 | 9.7 | 0.00 | 0.25 | 0.25 | 56 | 1033.9 |
| 20260831050512 | 13 | 222 | 4.8 | 9.7 | 0.00 | 0.25 | 0.25 | 57 | 1034.0 |
| 20260831050011 | 13 | 242 | 4.8 | 9.7 | 0.00 | 0.25 | 0.25 | 57 | 1033.9 |
| 20260831045510 | 13 | 237 | 6.4 | 14.5 | 0.00 | 0.25 | 0.25 | 56 | 1034.4 |
| 20260831045006 | 13 | 268 | 8.0 | 11.3 | 0.00 | 0.25 | 0.25 | 55 | 1034.4 |
| 20260831044501 | 13 | 264 | 6.4 | 11.3 | 0.00 | 0.25 | 0.25 | 55 | 1034.6 |
| 20260831043956 | 13 | 219 | 17.7 | 20.9 | 0.00 | 0.25 | 0.25 | 55 | 1034.8 |
| 20260831043455 | 13 | 237 | 3.2 | 3.2 | 0.00 | 0.25 | 0.25 | 62 | 1034.5 |
| 20260831042951 | 13 | 292 | 0.0 | 3.2 | 0.00 | 0.25 | 0.25 | 58 | 1034.8 |
| 20260831042450 | 14 | 225 | 3.2 | 6.4 | 0.00 | 0.25 | 0.25 | 53 | 1034.8 |
| 20260831041945 | 13 | 259 | 4.8 | 6.4 | 0.00 | 0.25 | 0.25 | 54 | 1034.5 |
| 20260831041439 | 13 | 212 | 6.4 | 12.9 | 0.00 | 0.25 | 0.25 | 53 | 1034.4 |
| 20260831040934 | 13 | 224 | 3.2 | 9.7 | 0.00 | 0.25 | 0.25 | 58 | 1034.1 |
| 20260831040429 | 13 | 214 | 4.8 | 4.8 | 0.00 | 0.25 | 0.25 | 55 | 1034.3 |
| 20260831035926 | 13 | 210 | 4.8 | 4.8 | 0.00 | 0.25 | 0.25 | 54 | 1033.9 |
| 20260831035426 | 13 | 224 | 3.2 | 4.8 | 0.00 | 0.25 | 0.25 | 58 | 1034.0 |
| 20260831034921 | 12 | 221 | 3.2 | 3.2 | 0.00 | 0.25 | 0.25 | 60 | 1033.6 |
| 20260831034416 | 13 | 245 | 1.6 | 3.2 | 0.00 | 0.25 | 0.25 | 57 | 1033.6 |
| 20260831033911 | 14 | 222 | 3.2 | 4.8 | 0.00 | 0.25 | 0.25 | 52 | 1033.5 |
| 20260831033407 | 14 | 224 | 3.2 | 6.4 | 0.00 | 0.25 | 0.25 | 49 | 1033.6 |
| 20260831032902 | 14 | 247 | 1.6 | 3.2 | 0.00 | 0.25 | 0.25 | 50 | 1033.3 |
| 20260831032356 | 15 | 208 | 3.2 | 11.3 | 0.00 | 0.25 | 0.25 | 51 | 1033.6 |
| 20260831031852 | 14 | 250 | 3.2 | 6.4 | 0.00 | 0.25 | 0.25 | 50 | 1033.5 |
| 20260831031351 | 13 | 240 | 3.2 | 6.4 | 0.00 | 0.25 | 0.25 | 51 | 1033.5 |
| 20260831030846 | 13 | 234 | 3.2 | 6.4 | 0.00 | 0.25 | 0.25 | 58 | 1033.5 |
| 20260831030344 | 12 | 269 | 1.6 | 4.8 | 0.00 | 0.25 | 0.25 | 56 | 1033.3 |
| 20260831025843 | 12 | 247 | 0.0 | 0.0 | 0.00 | 0.25 | 0.25 | 65 | 1033.5 |
| 20260831025343 | 11 | 250 | 0.0 | 4.8 | 0.00 | 0.25 | 0.25 | 68 | 1033.3 |
| 20260831024838 | 11 | 222 | 3.2 | 4.8 | 0.00 | 0.25 | 0.25 | 64 | 1033.2 |
| 20260831024337 | 12 | 232 | 3.2 | 4.8 | 0.00 | 0.25 | 0.25 | 63 | 1033.2 |
| 20260831023832 | 13 | 202 | 4.8 | 4.8 | 0.00 | 0.25 | 0.25 | 58 | 1032.9 |
| 20260831023330 | 12 | 235 | 3.2 | 9.7 | 0.00 | 0.25 | 0.25 | 58 | 1033.2 |
| 20260831022826 | 12 | 199 | 4.8 | 6.4 | 0.00 | 0.25 | 0.25 | 60 | 1033.3 |
| 20260831022325 | 13 | 224 | 3.2 | 4.8 | 0.00 | 0.25 | 0.25 | 62 | 1033.1 |
| 20260831021820 | 13 | 178 | 8.0 | 11.3 | 0.00 | 0.25 | 0.25 | 58 | 1033.2 |
| 20260831021319 | 13 | 212 | 4.8 | 9.7 | 0.00 | 0.25 | 0.25 | 59 | 1032.9 |
| 20260831020815 | 13 | 218 | 4.8 | 6.4 | 0.00 | 0.25 | 0.25 | 63 | 1033.3 |
| 20260831020315 | 12 | 208 | 4.8 | 6.4 | 0.00 | 0.25 | 0.25 | 64 | 1032.8 |
| 20260831015810 | 12 | 191 | 4.8 | 6.4 | 0.00 | 0.25 | 0.25 | 63 | 1032.7 |
| 20260831015306 | 12 | 208 | 4.8 | 4.8 | 0.00 | 0.25 | 0.25 | 68 | 1032.8 |
| 20260831014800 | 12 | 215 | 4.8 | 4.8 | 0.00 | 0.25 | 0.25 | 69 | 1032.8 |
| 20260831014255 | 12 | 220 | 4.8 | 9.7 | 0.00 | 0.25 | 0.25 | 70 | 1032.5 |
| 20260831013751 | 12 | 217 | 3.2 | 4.8 | 0.00 | 0.25 | 0.25 | 64 | 1032.7 |
| 20260831013250 | 12 | 201 | 3.2 | 4.8 | 0.00 | 0.25 | 0.25 | 65 | 1032.5 |
| 20260831012745 | 13 | 221 | 3.2 | 3.2 | 0.00 | 0.25 | 0.25 | 63 | 1032.4 |
| 20260831012241 | 12 | 244 | 4.8 | 12.9 | 0.00 | 0.25 | 0.25 | 63 | 1032.5 |
| 20260831011740 | 12 | 206 | 4.8 | 4.8 | 0.00 | 0.25 | 0.25 | 67 | 1032.7 |
| 20260831011236 | 12 | 228 | 3.2 | 4.8 | 0.00 | 0.25 | 0.25 | 72 | 1032.5 |
| 20260831010731 | 12 | 205 | 4.8 | 6.4 | 0.00 | 0.25 | 0.25 | 71 | 1032.5 |
| 20260831010225 | 12 | 211 | 4.8 | 4.8 | 0.00 | 0.25 | 0.25 | 70 | 1032.7 |
| 20260831005721 | 13 | 237 | 3.2 | 3.2 | 0.00 | 0.25 | 0.25 | 71 | 1032.8 |
| 20260831005216 | 13 | 275 | 0.0 | 0.0 | 0.00 | 0.25 | 0.25 | 64 | 1032.5 |
| 20260831004711 | 15 | 237 | 0.0 | 0.0 | 0.00 | 0.25 | 0.25 | 64 | 1032.7 |
| 20260831004208 | 15 | 268 | 0.0 | 1.6 | 0.00 | 0.25 | 0.25 | 57 | 1032.5 |
| 20260831003703 | 15 | 271 | 3.2 | 4.8 | 0.00 | 0.25 | 0.25 | 51 | 1032.8 |
| 20260831003159 | 15 | 274 | 0.0 | 3.2 | 0.00 | 0.25 | 0.25 | 52 | 1032.5 |
| 20260831002658 | 16 | 265 | 3.2 | 12.9 | 0.00 | 0.25 | 0.25 | 51 | 1032.4 |
| 20260831002152 | 16 | 259 | 11.3 | 17.7 | 0.00 | 0.25 | 0.25 | 52 | 1032.4 |
| 20260831001649 | 16 | 260 | 1.6 | 3.2 | 0.00 | 0.25 | 0.25 | 51 | 1032.7 |
| 20260831001144 | 16 | 11 | 3.2 | 3.2 | 0.00 | 0.25 | 0.25 | 50 | 1032.3 |
| 20260831000640 | 17 | 322 | 8.0 | 9.7 | 0.00 | 0.25 | 0.25 | 52 | 1032.5 |
| 20260831000134 | 17 | 56 | 3.2 | 9.7 | 0.00 | 0.25 | 0.25 | 49 | 1032.1 |
| 20260830235633 | 17 | 300 | 3.2 | 4.8 | 0.00 | 0.25 | 0.25 | 50 | 1032.4 |
| 20260830235128 | 17 | 266 | 0.0 | 9.7 | 0.00 | 0.25 | 0.25 | 45 | 1032.5 |
| 20260830234623 | 18 | 358 | 3.2 | 6.4 | 0.00 | 0.25 | 0.25 | 46 | 1032.5 |
| 20260830234119 | 19 | 244 | 0.0 | 0.0 | 0.00 | 0.25 | 0.25 | 42 | 1032.4 |
| 20260830233614 | 18 | 233 | 0.0 | 3.2 | 0.00 | 0.25 | 0.25 | 43 | 1032.4 |
| 20260830233110 | 18 | 218 | 1.6 | 1.6 | 0.00 | 0.25 | 0.25 | 48 | 1032.5 |
| 20260830232606 | 16 | 239 | 0.0 | 0.0 | 0.00 | 0.25 | 0.25 | 59 | 1032.3 |
| 20260830232102 | 16 | 234 | 1.6 | 1.6 | 0.00 | 0.25 | 0.25 | 63 | 1032.4 |
| 20260830231557 | 16 | 230 | 1.6 | 3.2 | 0.00 | 0.25 | 0.25 | 57 | 1032.4 |
| 20260830231056 | 15 | 228 | 1.6 | 4.8 | 0.00 | 0.25 | 0.25 | 53 | 1032.3 |
| 20260830230552 | 15 | 250 | 1.6 | 1.6 | 0.00 | 0.25 | 0.25 | 75 | 1032.4 |
| 20260830230046 | 15 | 228 | 3.2 | 4.8 | 0.00 | 0.25 | 0.25 | 64 | 1032.3 |
| 20260830225542 | 15 | 250 | 0.0 | 3.2 | 0.00 | 0.25 | 0.25 | 62 | 1032.3 |
| 20260830225041 | 15 | 130 | 6.4 | 11.3 | 0.00 | 0.25 | 0.25 | 62 | 1032.3 |
| 20260830224539 | 15 | 133 | 6.4 | 6.4 | 0.00 | 0.25 | 0.25 | 62 | 1032.4 |
| 20260830224037 | 16 | 247 | 0.0 | 4.8 | 0.00 | 0.25 | 0.25 | 55 | 1032.1 |
| 20260830223533 | 16 | 256 | 0.0 | 6.4 | 0.00 | 0.25 | 0.25 | 61 | 1032.4 |
| 20260830223033 | 15 | 230 | 1.6 | 1.6 | 0.00 | 0.25 | 0.25 | 59 | 1032.1 |
| 20260830222527 | 16 | 235 | 1.6 | 1.6 | 0.00 | 0.25 | 0.25 | 65 | 1032.4 |
| 20260830222023 | 15 | 258 | 3.2 | 4.8 | 0.00 | 0.25 | 0.25 | 61 | 1032.4 |
| 20260830221519 | 15 | 257 | 1.6 | 3.2 | 0.00 | 0.25 | 0.25 | 65 | 1032.4 |
| 20260830221010 | 15 | 247 | 1.6 | 11.3 | 0.00 | 0.25 | 0.25 | 66 | 1032.3 |
| 20260830220509 | 15 | 264 | 3.2 | 9.7 | 0.00 | 0.25 | 0.25 | 63 | 1032.4 |
| 20260830220008 | 14 | 251 | 4.8 | 12.9 | 0.00 | 0.25 | 0.25 | 64 | 1032.5 |
| 20260830215502 | 13 | 235 | 3.2 | 12.9 | 0.00 | 0.25 | 0.25 | 69 | 1032.4 |
| 20260830214956 | 13 | 247 | 6.4 | 14.5 | 0.00 | 0.25 | 0.25 | 72 | 1032.1 |
| 20260830214451 | 12 | 234 | 4.8 | 14.5 | 0.00 | 0.25 | 0.25 | 74 | 1032.4 |
| 20260830213946 | 12 | 282 | 6.4 | 9.7 | 0.00 | 0.25 | 0.25 | 74 | 1032.3 |
| 20260830213441 | 11 | 263 | 3.2 | 22.5 | 0.00 | 0.25 | 0.25 | 76 | 1032.4 |
| 20260830212937 | 11 | 251 | 1.6 | 9.7 | 0.00 | 0.25 | 0.25 | 77 | 1032.7 |
| 20260830212432 | 11 | 263 | 4.8 | 16.1 | 0.00 | 0.25 | 0.25 | 79 | 1032.5 |
| 20260830211932 | 11 | 293 | 3.2 | 25.7 | 0.00 | 0.25 | 0.25 | 80 | 1032.9 |
| 20260830211427 | 11 | 239 | 12.9 | 20.9 | 0.00 | 0.25 | 0.25 | 79 | 1033.1 |
| 20260830210922 | 10 | 223 | 4.8 | 14.5 | 0.00 | 0.25 | 0.25 | 85 | 1033.2 |
| 20260830210421 | 10 | 261 | 6.4 | 17.7 | 0.18 | 0.25 | 0.25 | 86 | 1033.2 |
| 20260830205919 | 10 | 223 | 17.7 | 30.6 | 0.18 | 0.25 | 0.25 | 83 | 1033.1 |
| 20260830205418 | 10 | 215 | 6.4 | 20.9 | 0.00 | 0.23 | 0.23 | 86 | 1032.9 |
| 20260830204914 | 10 | 289 | 12.9 | 37.0 | 0.00 | 0.23 | 0.23 | 83 | 1033.1 |
| 20260830204412 | 10 | 286 | 9.7 | 11.3 | 0.13 | 0.23 | 0.23 | 84 | 1033.1 |
| 20260830203907 | 10 | 225 | 3.2 | 16.1 | 0.13 | 0.23 | 0.23 | 84 | 1032.9 |
| 20260830203404 | 10 | 259 | 6.4 | 20.9 | 0.61 | 0.20 | 0.20 | 84 | 1032.9 |
| 20260830202857 | 10 | 262 | 6.4 | 12.9 | 1.19 | 0.20 | 0.20 | 86 | 1032.9 |
| 20260830202353 | 11 | 284 | 12.9 | 16.1 | 0.43 | 0.08 | 0.08 | 81 | 1032.8 |
| 20260830201848 | 14 | 331 | 27.4 | 35.4 | 0.00 | 0.00 | 0.00 | 63 | 1032.9 |
| 20260830201348 | 15 | 325 | 9.7 | 16.1 | 0.00 | 0.00 | 0.00 | 64 | 1032.8 |
| 20260830200843 | 16 | 275 | 3.2 | 11.3 | 0.00 | 0.00 | 0.00 | 62 | 1032.4 |
| 20260830200343 | 16 | 19 | 3.2 | 11.3 | 0.00 | 0.00 | 0.00 | 62 | 1032.0 |
| 20260830195838 | 17 | 329 | 3.2 | 11.3 | 0.00 | 0.00 | 0.00 | 59 | 1032.0 |
| 20260830195332 | 17 | 323 | 9.7 | 17.7 | 0.00 | 0.00 | 0.00 | 57 | 1032.0 |
| 20260830194831 | 18 | 287 | 1.6 | 3.2 | 0.00 | 0.00 | 0.00 | 63 | 1031.9 |
| 20260830194324 | 19 | 271 | 1.6 | 6.4 | 0.00 | 0.00 | 0.00 | 48 | 1031.6 |
| 20260830193820 | 19 | 238 | 1.6 | 4.8 | 0.00 | 0.00 | 0.00 | 46 | 1031.2 |
| 20260830193314 | 20 | 271 | 3.2 | 3.2 | 0.00 | 0.00 | 0.00 | 50 | 1031.2 |
| 20260830192810 | 20 | 257 | 0.0 | 3.2 | 0.00 | 0.00 | 0.00 | 46 | 1031.1 |
| 20260830192309 | 20 | 359 | 4.8 | 9.7 | 0.00 | 0.00 | 0.00 | 47 | 1031.1 |
| 20260830191805 | 20 | 273 | 4.8 | 6.4 | 0.00 | 0.00 | 0.00 | 43 | 1031.1 |
| 20260830191304 | 20 | 236 | 6.4 | 11.3 | 0.00 | 0.00 | 0.00 | 43 | 1031.1 |
| 20260830190801 | 20 | 40 | 4.8 | 6.4 | 0.00 | 0.00 | 0.00 | 44 | 1031.4 |
| 20260830190255 | 20 | 240 | 3.2 | 6.4 | 0.00 | 0.00 | 0.00 | 47 | 1031.2 |
| 20260830185754 | 20 | 132 | 4.8 | 9.7 | 0.00 | 0.00 | 0.00 | 46 | 1031.4 |
| 20260830185249 | 20 | 265 | 1.6 | 6.4 | 0.00 | 0.00 | 0.00 | 48 | 1031.2 |
| 20260830184749 | 20 | 247 | 3.2 | 6.4 | 0.00 | 0.00 | 0.00 | 47 | 1031.4 |
| 20260830184248 | 18 | 240 | 6.4 | 12.9 | 0.00 | 0.00 | 0.00 | 51 | 1031.4 |
| 20260830183744 | 18 | 265 | 0.0 | 4.8 | 0.00 | 0.00 | 0.00 | 51 | 1031.8 |
| 20260830183238 | 17 | 261 | 1.6 | 3.2 | 0.00 | 0.00 | 0.00 | 53 | 1031.5 |
| 20260830182738 | 17 | 218 | 3.2 | 6.4 | 0.00 | 0.00 | 0.00 | 51 | 1031.6 |
| 20260830182235 | 17 | 223 | 1.6 | 9.7 | 0.00 | 0.00 | 0.00 | 50 | 1031.8 |
| 20260830181731 | 18 | 247 | 3.2 | 3.2 | 0.00 | 0.00 | 0.00 | 49 | 1032.0 |
| 20260830181226 | 18 | 222 | 3.2 | 4.8 | 0.00 | 0.00 | 0.00 | 51 | 1031.9 |
| 20260830180725 | 18 | 184 | 3.2 | 9.7 | 0.00 | 0.00 | 0.00 | 50 | 1031.9 |
| 20260830180220 | 18 | 271 | 3.2 | 6.4 | 0.00 | 0.00 | 0.00 | 47 | 1032.1 |
| 20260830175719 | 18 | 169 | 0.0 | 3.2 | 0.00 | 0.00 | 0.00 | 46 | 1031.8 |
| 20260830175214 | 18 | 305 | 8.0 | 12.9 | 0.00 | 0.00 | 0.00 | 47 | 1032.0 |
| 20260830174709 | 18 | 281 | 6.4 | 16.1 | 0.00 | 0.00 | 0.00 | 49 | 1032.1 |
| 20260830174205 | 18 | 257 | 1.6 | 3.2 | 0.00 | 0.00 | 0.00 | 49 | 1032.0 |
| 20260830173659 | 19 | 209 | 4.8 | 6.4 | 0.00 | 0.00 | 0.00 | 48 | 1032.1 |
| 20260830173154 | 18 | 257 | 1.6 | 3.2 | 0.00 | 0.00 | 0.00 | 48 | 1032.1 |
| 20260830172651 | 18 | 111 | 4.8 | 16.1 | 0.00 | 0.00 | 0.00 | 49 | 1032.0 |
| 20260830172148 | 19 | 96 | 6.4 | 14.5 | 0.00 | 0.00 | 0.00 | 50 | 1032.3 |
| 20260830171647 | 18 | 119 | 6.4 | 9.7 | 0.00 | 0.00 | 0.00 | 48 | 1032.1 |
| 20260830171142 | 18 | 145 | 8.0 | 11.3 | 0.00 | 0.00 | 0.00 | 49 | 1032.3 |
| 20260830170637 | 17 | 51 | 6.4 | 9.7 | 0.00 | 0.00 | 0.00 | 52 | 1032.0 |
| 20260830170136 | 18 | 25 | 11.3 | 12.9 | 0.00 | 0.00 | 0.00 | 51 | 1032.0 |
| 20260830165631 | 17 | 105 | 6.4 | 11.3 | 0.00 | 0.00 | 0.00 | 51 | 1032.4 |
| 20260830165127 | 18 | 261 | 3.2 | 9.7 | 0.00 | 0.00 | 0.00 | 49 | 1032.3 |
| 20260830164623 | 18 | 162 | 3.2 | 6.4 | 0.00 | 0.00 | 0.00 | 49 | 1032.3 |
| 20260830164119 | 18 | 229 | 3.2 | 6.4 | 0.00 | 0.00 | 0.00 | 51 | 1032.1 |
| 20260830163615 | 18 | 148 | 9.7 | 14.5 | 0.00 | 0.00 | 0.00 | 50 | 1032.5 |
| 20260830163110 | 17 | 57 | 6.4 | 11.3 | 0.00 | 0.00 | 0.00 | 55 | 1032.0 |
| 20260830162605 | 17 | 226 | 4.8 | 6.4 | 0.00 | 0.00 | 0.00 | 54 | 1032.3 |
| 20260830162101 | 17 | 225 | 3.2 | 11.3 | 0.00 | 0.00 | 0.00 | 53 | 1032.1 |
| 20260830161600 | 17 | 105 | 6.4 | 14.5 | 0.00 | 0.00 | 0.00 | 53 | 1032.0 |
| 20260830161055 | 17 | 197 | 0.0 | 0.0 | 0.00 | 0.00 | 0.00 | 53 | 1032.5 |
| 20260830160551 | 17 | 43 | 1.6 | 3.2 | 0.00 | 0.00 | 0.00 | 54 | 1032.3 |
| 20260830160046 | 17 | 263 | 1.6 | 6.4 | 0.00 | 0.00 | 0.00 | 54 | 1032.3 |
| 20260830155542 | 17 | 27 | 3.2 | 9.7 | 0.00 | 0.00 | 0.00 | 53 | 1032.5 |
| 20260830155037 | 17 | 26 | 1.6 | 6.4 | 0.00 | 0.00 | 0.00 | 54 | 1032.4 |
| 20260830154532 | 16 | 270 | 1.6 | 1.6 | 0.00 | 0.00 | 0.00 | 52 | 1032.1 |
| 20260830154029 | 16 | 266 | 6.4 | 9.7 | 0.00 | 0.00 | 0.00 | 54 | 1032.4 |
| 20260830153525 | 16 | 295 | 3.2 | 4.8 | 0.00 | 0.00 | 0.00 | 56 | 1032.7 |
| 20260830153025 | 16 | 323 | 1.6 | 1.6 | 0.00 | 0.00 | 0.00 | 58 | 1032.4 |
| 20260830152520 | 15 | 318 | 3.2 | 6.4 | 0.00 | 0.00 | 0.00 | 59 | 1032.4 |
| 20260830152019 | 15 | 321 | 4.8 | 6.4 | 0.00 | 0.00 | 0.00 | 59 | 1032.4 |
| 20260830151518 | 15 | 317 | 6.4 | 9.7 | 0.00 | 0.00 | 0.00 | 59 | 1032.4 |
| 20260830151013 | 15 | 255 | 0.0 | 0.0 | 0.00 | 0.00 | 0.00 | 56 | 1032.5 |
| 20260830150513 | 15 | 260 | 0.0 | 3.2 | 0.00 | 0.00 | 0.00 | 58 | 1032.5 |
| 20260830150008 | 15 | 277 | 3.2 | 9.7 | 0.00 | 0.00 | 0.00 | 60 | 1032.7 |
| 20260830145507 | 15 | 267 | 0.0 | 0.0 | 0.00 | 0.00 | 0.00 | 65 | 1032.1 |
| 20260830145002 | 14 | 249 | 0.0 | 1.6 | 0.00 | 0.00 | 0.00 | 64 | 1032.4 |
| 20260830144458 | 14 | 252 | 0.0 | 0.0 | 0.00 | 0.00 | 0.00 | 60 | 1032.0 |
| 20260830143953 | 14 | 237 | 1.6 | 3.2 | 0.00 | 0.00 | 0.00 | 59 | 1032.1 |
| 20260830143449 | 14 | 233 | 3.2 | 3.2 | 0.00 | 0.00 | 0.00 | 63 | 1032.3 |
| 20260830142947 | 13 | 233 | 3.2 | 4.8 | 0.00 | 0.00 | 0.00 | 62 | 1031.9 |
| 20260830142443 | 14 | 246 | 1.6 | 3.2 | 0.00 | 0.00 | 0.00 | 64 | 1032.0 |
| 20260830141937 | 13 | 224 | 3.2 | 3.2 | 0.00 | 0.00 | 0.00 | 58 | 1032.0 |
| 20260830141433 | 13 | 218 | 3.2 | 4.8 | 0.00 | 0.00 | 0.00 | 60 | 1032.0 |
| 20260830140928 | 13 | 226 | 3.2 | 3.2 | 0.00 | 0.00 | 0.00 | 60 | 1032.3 |
| 20260830140423 | 13 | 224 | 4.8 | 6.4 | 0.00 | 0.00 | 0.00 | 60 | 1032.1 |
| 20260830135922 | 13 | 216 | 3.2 | 4.8 | 0.00 | 0.00 | 0.00 | 65 | 1032.0 |
| 20260830135418 | 12 | 240 | 0.0 | 0.0 | 0.00 | 0.00 | 0.00 | 68 | 1032.0 |
| 20260830134914 | 12 | 238 | 0.0 | 0.0 | 0.00 | 0.00 | 0.00 | 70 | 1032.0 |
| 20260830134409 | 12 | 241 | 0.0 | 0.0 | 0.00 | 0.00 | 0.00 | 69 | 1032.1 |
| 20260830133904 | 12 | 248 | 0.0 | 0.0 | 0.00 | 0.00 | 0.00 | 69 | 1032.3 |
| 20260830133400 | 12 | 237 | 1.6 | 3.2 | 0.00 | 0.00 | 0.00 | 68 | 1032.1 |
| 20260830132855 | 12 | 231 | 3.2 | 3.2 | 0.00 | 0.00 | 0.00 | 68 | 1032.0 |
| 20260830132351 | 12 | 228 | 3.2 | 3.2 | 0.00 | 0.00 | 0.00 | 66 | 1031.6 |
| 20260830131850 | 12 | 205 | 3.2 | 4.8 | 0.00 | 0.00 | 0.00 | 65 | 1032.1 |
| 20260830131345 | 11 | 240 | 3.2 | 3.2 | 0.00 | 0.00 | 0.00 | 65 | 1032.0 |
| 20260830130840 | 11 | 225 | 3.2 | 3.2 | 0.00 | 0.00 | 0.00 | 65 | 1031.9 |
| 20260830130336 | 11 | 207 | 3.2 | 4.8 | 0.00 | 0.00 | 0.00 | 65 | 1031.9 |
| 20260830125834 | 11 | 246 | 0.0 | 0.0 | 0.00 | 0.00 | 0.00 | 65 | 1031.6 |
| 20260830125330 | 11 | 245 | 0.0 | 0.0 | 0.00 | 0.00 | 0.00 | 64 | 1031.5 |
| 20260830124827 | 11 | 237 | 0.0 | 0.0 | 0.00 | 0.00 | 0.00 | 64 | 1031.2 |
| 20260830124322 | 11 | 235 | 3.2 | 3.2 | 0.00 | 0.00 | 0.00 | 65 | 1031.6 |
| 20260830123819 | 11 | 220 | 3.2 | 3.2 | 0.00 | 0.00 | 0.00 | 62 | 1031.5 |
| 20260830123315 | 12 | 253 | 0.0 | 1.6 | 0.00 | 0.00 | 0.00 | 61 | 1031.4 |
| 20260830122812 | 11 | 238 | 3.2 | 4.8 | 0.00 | 0.00 | 0.00 | 63 | 1031.2 |
| 20260830122307 | 12 | 230 | 3.2 | 4.8 | 0.00 | 0.00 | 0.00 | 62 | 1031.0 |
| 20260830121802 | 12 | 227 | 3.2 | 4.8 | 0.00 | 0.00 | 0.00 | 64 | 1031.1 |
| 20260830121301 | 12 | 206 | 4.8 | 6.4 | 0.00 | 0.00 | 0.00 | 61 | 1031.0 |
| 20260830120752 | 12 | 215 | 3.2 | 6.4 | 0.00 | 0.00 | 0.00 | 62 | 1030.8 |
| 20260830120247 | 11 | 209 | 6.4 | 6.4 | 0.00 | 0.00 | 0.00 | 62 | 1030.8 |
| 20260830115743 | 12 | 214 | 4.8 | 4.8 | 0.00 | 0.00 | 0.00 | 62 | 1030.8 |
| 20260830115238 | 12 | 221 | 3.2 | 4.8 | 0.00 | 0.00 | 0.00 | 63 | 1030.6 |
| 20260830114735 | 13 | 215 | 4.8 | 6.4 | 0.00 | 0.00 | 0.00 | 60 | 1030.8 |
| 20260830114230 | 13 | 209 | 4.8 | 4.8 | 0.00 | 0.00 | 0.00 | 56 | 1030.7 |
| 20260830113725 | 12 | 209 | 8.0 | 16.1 | 0.00 | 0.00 | 0.00 | 58 | 1030.8 |
| 20260830113220 | 12 | 217 | 3.2 | 6.4 | 0.00 | 0.00 | 0.00 | 61 | 1030.7 |
| 20260830112716 | 11 | 228 | 3.2 | 6.4 | 0.00 | 0.00 | 0.00 | 67 | 1031.0 |
| 20260830112212 | 12 | 211 | 3.2 | 4.8 | 0.00 | 0.00 | 0.00 | 63 | 1030.6 |
| 20260830111708 | 12 | 228 | 3.2 | 4.8 | 0.00 | 0.00 | 0.00 | 63 | 1030.8 |
| 20260830111203 | 11 | 271 | 0.0 | 0.0 | 0.00 | 0.00 | 0.00 | 63 | 1030.8 |
| 20260830110702 | 11 | 244 | 1.6 | 4.8 | 0.00 | 0.00 | 0.00 | 64 | 1030.8 |
| 20260830110159 | 12 | 231 | 4.8 | 4.8 | 0.00 | 0.00 | 0.00 | 65 | 1030.8 |
| 20260830105658 | 11 | 191 | 3.2 | 4.8 | 0.00 | 0.00 | 0.00 | 64 | 1030.6 |
| 20260830105154 | 11 | 226 | 4.8 | 6.4 | 0.00 | 0.00 | 0.00 | 64 | 1030.7 |
| 20260830104651 | 11 | 222 | 3.2 | 4.8 | 0.00 | 0.00 | 0.00 | 66 | 1030.8 |
| 20260830104148 | 11 | 215 | 3.2 | 6.4 | 0.00 | 0.00 | 0.00 | 65 | 1030.7 |
| 20260830103646 | 12 | 210 | 4.8 | 4.8 | 0.00 | 0.00 | 0.00 | 63 | 1030.8 |
| 20260830103142 | 12 | 257 | 0.0 | 1.6 | 0.00 | 0.00 | 0.00 | 64 | 1030.7 |
| 20260830102641 | 12 | 237 | 3.2 | 3.2 | 0.00 | 0.00 | 0.00 | 63 | 1030.7 |
| 20260830102137 | 12 | 242 | 3.2 | 4.8 | 0.00 | 0.00 | 0.00 | 60 | 1030.6 |
| 20260830101632 | 12 | 226 | 3.2 | 4.8 | 0.00 | 0.00 | 0.00 | 62 | 1030.6 |
| 20260830101126 | 12 | 223 | 3.2 | 4.8 | 0.00 | 0.00 | 0.00 | 61 | 1030.7 |
| 20260830100621 | 12 | 222 | 3.2 | 4.8 | 0.00 | 0.00 | 0.00 | 63 | 1030.7 |
| 20260830100120 | 12 | 201 | 3.2 | 6.4 | 0.00 | 0.00 | 0.00 | 62 | 1030.7 |
| 20260830095614 | 12 | 207 | 4.8 | 4.8 | 0.00 | 0.00 | 0.00 | 62 | 1030.6 |
| 20260830095110 | 11 | 210 | 3.2 | 4.8 | 0.00 | 0.00 | 0.00 | 66 | 1030.6 |
| 20260830094606 | 11 | 209 | 3.2 | 4.8 | 0.00 | 0.00 | 0.00 | 64 | 1031.0 |
| 20260830094056 | 11 | 239 | 1.6 | 3.2 | 0.00 | 0.00 | 0.00 | 66 | 1030.8 |
| 20260830093551 | 11 | 244 | 0.0 | 1.6 | 0.00 | 0.00 | 0.00 | 64 | 1030.7 |
| 20260830093048 | 12 | 219 | 3.2 | 3.2 | 0.00 | 0.00 | 0.00 | 64 | 1031.0 |
| 20260830092542 | 12 | 220 | 3.2 | 4.8 | 0.00 | 0.00 | 0.00 | 62 | 1030.7 |
| 20260830092039 | 12 | 219 | 3.2 | 4.8 | 0.00 | 0.00 | 0.00 | 61 | 1030.6 |
| 20260830091534 | 13 | 215 | 3.2 | 4.8 | 0.00 | 0.00 | 0.00 | 60 | 1030.6 |
| 20260830091033 | 13 | 223 | 3.2 | 4.8 | 0.00 | 0.00 | 0.00 | 59 | 1030.7 |
| 20260830090528 | 13 | 225 | 4.8 | 4.8 | 0.00 | 0.00 | 0.00 | 59 | 1030.6 |
| 20260830090023 | 13 | 197 | 4.8 | 4.8 | 0.00 | 0.00 | 0.00 | 58 | 1031.1 |
| 20260830085517 | 13 | 224 | 3.2 | 6.4 | 0.00 | 0.00 | 0.00 | 59 | 1031.0 |
| 20260830085013 | 14 | 215 | 3.2 | 4.8 | 0.00 | 0.00 | 0.00 | 56 | 1030.7 |
| 20260830084508 | 13 | 227 | 4.8 | 4.8 | 0.00 | 0.00 | 0.00 | 58 | 1030.8 |
| 20260830084003 | 13 | 201 | 4.8 | 9.7 | 0.00 | 0.00 | 0.00 | 60 | 1031.0 |
| 20260830083459 | 13 | 203 | 6.4 | 9.7 | 0.00 | 0.00 | 0.00 | 57 | 1031.1 |
| 20260830082958 | 13 | 234 | 4.8 | 6.4 | 0.00 | 0.00 | 0.00 | 59 | 1030.8 |